Time;durP1;ratioP1;P1;durP2;ratioP2;P2;SDS_P1;SDS_P2;PMS_P1;PMS_P2;Temp;Humidity;BMP_temperature;BMP_pressure;BME280_temperature;BME280_humidity;BME280_pressure;Samples;Min_cycle;Max_cycle;Signal;HPM_P1;HPM_P2
2022/09/13 00:02:21;;;;;;;3.38;2.63;;;20.30;51.00;;;;;;5021859;28;20057;-47
2022/09/13 00:04:49;;;;;;;4.10;2.70;;;20.30;51.00;;;;;;5021841;28;20058;-50
2022/09/13 00:07:16;;;;;;;5.00;2.45;;;20.30;51.10;;;;;;5021444;28;20049;-47
2022/09/13 00:09:44;;;;;;;2.88;2.40;;;20.30;51.20;;;;;;5019640;28;20498;-46
2022/09/13 00:12:12;;;;;;;3.85;3.05;;;20.30;51.20;;;;;;5015774;28;20405;-47
2022/09/13 00:14:39;;;;;;;3.40;2.28;;;20.30;51.30;;;;;;5020694;28;20128;-47
2022/09/13 00:17:06;;;;;;;2.88;2.58;;;20.30;51.30;;;;;;5020011;28;20053;-51
2022/09/13 00:19:33;;;;;;;3.25;2.58;;;20.30;51.30;;;;;;5020590;28;20045;-53
2022/09/13 00:22:01;;;;;;;3.35;2.58;;;20.30;51.30;;;;;;5020435;28;20417;-49
2022/09/13 00:24:28;;;;;;;3.72;2.53;;;20.20;51.30;;;;;;5021757;28;20061;-48
2022/09/13 00:26:56;;;;;;;4.28;2.83;;;20.20;51.30;;;;;;5017404;28;20057;-49
2022/09/13 00:29:24;;;;;;;2.65;2.45;;;20.20;51.40;;;;;;5022739;28;20493;-49
2022/09/13 00:31:51;;;;;;;3.35;2.72;;;20.20;51.40;;;;;;5017815;28;20068;-49
2022/09/13 00:34:18;;;;;;;3.10;2.45;;;20.20;51.40;;;;;;5022702;28;20064;-50
2022/09/13 00:36:46;;;;;;;5.70;3.33;;;20.20;51.50;;;;;;5022233;28;20058;-47
2022/09/13 00:39:13;;;;;;;3.45;3.05;;;20.20;51.50;;;;;;5021413;28;20050;-46
2022/09/13 00:41:41;;;;;;;4.13;3.00;;;20.10;51.50;;;;;;5012567;28;20053;-47
2022/09/13 00:44:41;;;;;;;4.00;2.72;;;20.10;52.00;;;;;;5019652;28;20056;-48
2022/09/13 00:47:11;;;;;;;3.33;2.83;;;20.10;51.60;;;;;;5018813;28;20061;-50
2022/09/13 00:49:41;;;;;;;4.03;2.60;;;20.10;51.50;;;;;;5020067;28;20485;-49
2022/09/13 00:52:13;;;;;;;5.40;3.15;;;20.10;51.60;;;;;;5021063;28;20528;-46
2022/09/13 00:54:45;;;;;;;3.33;2.45;;;20.10;51.60;;;;;;5021319;28;20072;-46
2022/09/13 00:57:14;;;;;;;3.10;2.60;;;20.10;51.60;;;;;;5020210;28;20412;-50
2022/09/13 00:59:46;;;;;;;3.35;3.00;;;20.10;51.60;;;;;;5019354;28;20515;-48
2022/09/13 01:02:15;;;;;;;3.38;3.03;;;20.00;51.60;;;;;;5019033;28;20057;-58
2022/09/13 01:04:43;;;;;;;3.15;2.70;;;20.10;51.80;;;;;;5021634;28;20409;-56
2022/09/13 01:07:15;;;;;;;3.17;2.63;;;20.00;51.80;;;;;;5020633;28;20049;-57
2022/09/13 01:09:45;;;;;;;5.00;2.53;;;20.00;51.90;;;;;;5020011;28;20054;-55
2022/09/13 01:12:17;;;;;;;3.80;2.60;;;20.00;51.80;;;;;;5013504;28;20053;-53
2022/09/13 01:14:46;;;;;;;3.72;3.25;;;20.00;51.80;;;;;;5018719;28;20087;-57
2022/09/13 01:17:14;;;;;;;2.95;2.65;;;19.90;51.90;;;;;;5021522;28;20064;-52
2022/09/13 01:19:42;;;;;;;4.15;3.28;;;19.90;51.90;;;;;;5018641;28;20045;-58
2022/09/13 01:22:38;;;;;;;3.70;2.97;;;19.90;52.00;;;;;;5019463;28;20054;-57
2022/09/13 01:25:41;;;;;;;3.72;3.05;;;19.90;52.10;;;;;;5020522;28;20417;-57
2022/09/13 01:28:26;;;;;;;4.60;2.67;;;19.90;52.10;;;;;;5006992;28;20053;-57
2022/09/13 01:31:01;;;;;;;4.50;2.72;;;19.90;52.00;;;;;;5016676;28;20072;-54
2022/09/13 01:33:48;;;;;;;3.50;2.80;;;19.90;52.10;;;;;;5016178;28;20056;-57
2022/09/13 01:36:39;;;;;;;5.97;3.03;;;19.90;52.20;;;;;;5020906;28;20057;-56
2022/09/13 01:39:11;;;;;;;3.78;2.90;;;19.90;52.20;;;;;;5014384;28;20072;-55
2022/09/13 01:41:59;;;;;;;3.35;3.00;;;19.90;52.20;;;;;;5012433;28;20064;-58
2022/09/13 01:44:47;;;;;;;4.10;2.60;;;19.80;52.30;;;;;;5017065;28;20409;-58
2022/09/13 01:47:24;;;;;;;3.45;2.95;;;19.80;52.30;;;;;;5017288;28;20629;-58
2022/09/13 01:50:06;;;;;;;13.73;3.25;;;19.90;52.30;;;;;;5019852;28;20050;-58
2022/09/13 01:52:42;;;;;;;6.15;3.40;;;19.80;52.30;;;;;;5020907;28;20049;-53
2022/09/13 01:55:18;;;;;;;2.92;2.63;;;19.80;52.40;;;;;;5022123;28;20053;-57
2022/09/13 01:57:51;;;;;;;4.72;3.00;;;19.80;52.40;;;;;;5020810;28;20464;-58
2022/09/13 02:00:19;;;;;;;3.33;3.00;;;19.80;52.40;;;;;;5015456;28;20057;-55
2022/09/13 02:02:51;;;;;;;5.80;3.08;;;19.80;52.40;;;;;;5021593;28;20484;-53
2022/09/13 02:05:24;;;;;;;3.67;2.65;;;19.80;52.50;;;;;;5021945;28;20053;-54
2022/09/13 02:07:57;;;;;;;3.00;2.30;;;19.80;52.50;;;;;;5017382;28;20057;-47
2022/09/13 02:10:29;;;;;;;2.95;2.60;;;19.80;52.50;;;;;;5014469;28;20049;-47
2022/09/13 02:12:59;;;;;;;3.35;2.70;;;19.80;52.60;;;;;;5019700;28;20053;-48
2022/09/13 02:15:29;;;;;;;4.55;3.22;;;19.70;52.70;;;;;;5020004;28;20062;-50
2022/09/13 02:18:04;;;;;;;4.18;3.00;;;19.80;52.80;;;;;;5021070;28;20054;-48
2022/09/13 02:20:35;;;;;;;4.32;2.83;;;19.70;52.80;;;;;;5017058;28;20053;-52
2022/09/13 02:23:08;;;;;;;3.13;2.75;;;19.70;52.80;;;;;;5020310;28;20497;-48
2022/09/13 02:25:37;;;;;;;3.38;2.70;;;19.70;52.80;;;;;;5019038;28;20436;-47
2022/09/13 02:28:09;;;;;;;3.00;2.60;;;19.80;52.90;;;;;;5016386;28;20064;-48
2022/09/13 02:30:41;;;;;;;2.83;2.38;;;19.70;52.90;;;;;;5013226;28;20045;-50
2022/09/13 02:33:13;;;;;;;3.05;2.38;;;19.80;52.90;;;;;;5020540;28;20058;-50
2022/09/13 02:35:48;;;;;;;3.03;2.65;;;19.80;52.80;;;;;;5020348;28;20057;-49
2022/09/13 02:38:24;;;;;;;2.70;2.40;;;19.80;52.90;;;;;;5022328;28;20061;-50
2022/09/13 02:40:58;;;;;;;3.58;2.90;;;19.80;52.90;;;;;;5010565;28;20061;-50
2022/09/13 02:43:28;;;;;;;;;;;19.80;52.90;;;;;;5020671;28;20248;-48
2022/09/13 02:46:08;;;;;;;2.83;2.47;;;19.80;52.80;;;;;;5022491;28;20310;-50
2022/09/13 02:48:49;;;;;;;3.55;2.58;;;19.80;52.60;;;;;;5023376;28;20053;-46
2022/09/13 02:51:23;;;;;;;3.85;2.47;;;19.80;52.80;;;;;;5019382;28;20050;-51
2022/09/13 02:53:55;;;;;;;4.63;2.30;;;19.80;52.80;;;;;;5023421;28;20060;-46
2022/09/13 02:56:28;;;;;;;3.92;2.70;;;19.80;52.80;;;;;;5022442;28;20061;-50
2022/09/13 02:59:03;;;;;;;2.60;2.28;;;19.80;52.80;;;;;;5025143;28;20076;-51
2022/09/13 03:01:31;;;;;;;4.47;2.67;;;19.80;52.80;;;;;;5018514;28;20049;-48
2022/09/13 03:03:59;;;;;;;3.50;2.55;;;19.80;52.80;;;;;;5021904;28;20072;-45
2022/09/13 03:06:28;;;;;;;3.17;2.50;;;19.80;52.80;;;;;;5020799;28;20061;-51
2022/09/13 03:08:59;;;;;;;3.80;2.60;;;19.80;52.90;;;;;;5019228;28;20069;-45
2022/09/13 03:11:40;;;;;;;3.97;2.63;;;19.80;52.90;;;;;;5018117;28;20045;-51
2022/09/13 03:14:19;;;;;;;2.63;2.33;;;19.80;52.90;;;;;;5023395;28;20068;-46
2022/09/13 03:17:11;;;;;;;3.45;2.40;;;19.80;53.00;;;;;;5019400;28;20061;-50
2022/09/13 03:20:00;;;;;;;3.42;2.53;;;19.80;52.80;;;;;;5018401;28;20053;-47
2022/09/13 03:22:59;;;;;;;3.78;2.33;;;19.80;52.80;;;;;;5022855;28;20497;-49
2022/09/13 03:25:40;;;;;;;3.75;2.40;;;19.80;52.90;;;;;;5008128;28;20057;-50
2022/09/13 03:28:17;;;;;;;4.07;2.25;;;19.80;52.90;;;;;;5020089;28;20053;-47
2022/09/13 03:30:51;;;;;;;3.65;2.40;;;19.80;53.00;;;;;;5012334;28;20050;-45
2022/09/13 03:33:25;;;;;;;3.08;2.40;;;19.80;53.00;;;;;;5024325;28;20057;-55
2022/09/13 03:35:57;;;;;;;2.88;2.47;;;19.90;53.10;;;;;;5023449;28;20061;-48
2022/09/13 03:38:31;;;;;;;2.63;2.20;;;19.80;53.10;;;;;;5022026;28;20056;-48
2022/09/13 03:41:04;;;;;;;3.55;2.50;;;19.80;53.10;;;;;;5020541;28;20493;-48
2022/09/13 03:43:36;;;;;;;3.80;2.67;;;19.80;53.10;;;;;;5024107;28;20057;-51
2022/09/13 03:46:08;;;;;;;2.70;2.20;;;19.90;53.20;;;;;;5021931;28;20068;-46
2022/09/13 03:48:37;;;;;;;2.63;2.38;;;19.80;53.20;;;;;;5025059;28;20053;-49
2022/09/13 03:51:07;;;;;;;2.75;2.50;;;19.80;53.20;;;;;;5019467;28;20050;-49
2022/09/13 03:53:38;;;;;;;8.55;6.05;;;19.80;53.20;;;;;;5022405;28;20409;-48
2022/09/13 03:56:13;;;;;;;7.75;4.93;;;19.80;53.30;;;;;;5022438;28;20049;-48
2022/09/13 03:58:40;;;;;;;5.07;3.60;;;19.80;53.40;;;;;;5023403;28;20053;-45
2022/09/13 04:01:09;;;;;;;5.32;3.10;;;19.80;53.30;;;;;;5019047;28;20111;-49
2022/09/13 04:03:36;;;;;;;4.40;2.80;;;19.80;53.40;;;;;;5012001;28;20061;-48
2022/09/13 04:06:04;;;;;;;5.05;2.83;;;19.80;53.20;;;;;;5015266;28;20057;-46
2022/09/13 04:08:33;;;;;;;5.97;3.03;;;19.80;53.20;;;;;;5015508;28;20053;-50
2022/09/13 04:11:01;;;;;;;3.92;2.58;;;19.80;53.10;;;;;;5022822;28;20060;-50
2022/09/13 04:13:29;;;;;;;4.28;2.72;;;19.80;53.10;;;;;;5023353;28;20393;-49
2022/09/13 04:16:01;;;;;;;5.68;2.60;;;19.80;53.10;;;;;;5021349;28;20400;-48
2022/09/13 04:18:29;;;;;;;4.47;2.65;;;19.90;53.20;;;;;;5016238;28;20060;-49
2022/09/13 04:20:58;;;;;;;3.50;2.80;;;19.80;53.10;;;;;;5014669;28;20050;-49
2022/09/13 04:23:27;;;;;;;3.63;2.95;;;19.90;53.20;;;;;;5019835;28;20527;-48
2022/09/13 04:26:01;;;;;;;4.53;3.30;;;19.80;53.10;;;;;;5022286;28;20056;-52
2022/09/13 04:28:28;;;;;;;7.20;3.15;;;19.80;53.10;;;;;;5022930;28;20508;-47
2022/09/13 04:30:56;;;;;;;3.45;3.00;;;19.80;53.00;;;;;;5005883;28;20061;-50
2022/09/13 04:33:23;;;;;;;6.35;2.97;;;19.80;53.20;;;;;;5008916;28;20067;-49
2022/09/13 04:35:55;;;;;;;6.55;3.00;;;19.80;53.30;;;;;;4999684;28;20409;-49
2022/09/13 04:38:22;;;;;;;3.22;2.63;;;19.80;53.40;;;;;;5003369;28;20054;-47
2022/09/13 04:40:53;;;;;;;4.30;2.70;;;19.80;53.30;;;;;;5001026;28;20058;-46
2022/09/13 04:43:22;;;;;;;3.42;2.55;;;19.80;53.30;;;;;;5002715;28;20544;-49
2022/09/13 04:45:49;;;;;;;3.30;2.85;;;19.90;53.30;;;;;;5001620;28;20402;-48
2022/09/13 04:48:16;;;;;;;5.00;2.80;;;19.80;53.30;;;;;;5001983;28;20576;-46
2022/09/13 04:50:44;;;;;;;3.75;2.97;;;19.80;53.30;;;;;;5001729;28;20057;-46
2022/09/13 04:53:11;;;;;;;2.90;2.53;;;19.90;53.40;;;;;;4996162;28;20494;-45
2022/09/13 04:55:39;;;;;;;4.82;2.95;;;19.80;53.40;;;;;;5003176;28;20057;-49
2022/09/13 04:58:06;;;;;;;4.60;2.90;;;19.80;53.30;;;;;;5000420;28;20409;-52
2022/09/13 05:00:35;;;;;;;6.20;2.83;;;19.80;53.30;;;;;;4990576;28;20049;-49
2022/09/13 05:03:02;;;;;;;4.25;2.72;;;19.80;53.30;;;;;;5000714;28;20050;-48
2022/09/13 05:05:31;;;;;;;5.32;2.55;;;19.80;53.30;;;;;;5003954;28;20369;-49
2022/09/13 05:07:58;;;;;;;3.05;2.72;;;19.80;53.30;;;;;;5001176;28;20053;-47
2022/09/13 05:10:25;;;;;;;3.85;3.03;;;19.80;53.30;;;;;;4999613;28;20478;-48
2022/09/13 05:12:53;;;;;;;3.13;2.63;;;19.80;53.30;;;;;;4999121;28;20180;-49
2022/09/13 05:15:20;;;;;;;4.47;2.88;;;19.80;53.30;;;;;;5002091;28;20069;-49
2022/09/13 05:17:48;;;;;;;5.28;2.75;;;19.80;53.30;;;;;;5002887;28;20053;-47
2022/09/13 05:20:17;;;;;;;4.18;3.00;;;19.90;53.30;;;;;;4999791;28;20066;-48
2022/09/13 05:22:45;;;;;;;4.13;3.00;;;19.80;53.30;;;;;;4990632;28;20053;-50
2022/09/13 05:25:13;;;;;;;3.00;2.50;;;19.80;53.30;;;;;;4985397;28;20627;-45
2022/09/13 05:27:40;;;;;;;3.03;2.70;;;19.80;53.30;;;;;;4991555;28;20421;-51
2022/09/13 05:30:08;;;;;;;3.38;2.58;;;19.80;53.30;;;;;;4999990;28;20050;-52
2022/09/13 05:32:36;;;;;;;3.90;2.65;;;19.80;53.30;;;;;;4995626;28;20117;-50
2022/09/13 05:35:05;;;;;;;3.85;2.92;;;19.80;53.30;;;;;;4986965;28;20050;-50
2022/09/13 05:37:33;;;;;;;3.85;2.63;;;19.80;53.40;;;;;;4995940;28;20050;-49
2022/09/13 05:40:01;;;;;;;3.00;2.70;;;19.80;53.40;;;;;;4998219;28;20057;-51
2022/09/13 05:42:29;;;;;;;3.20;2.90;;;19.80;53.30;;;;;;4997793;28;20058;-51
2022/09/13 05:44:57;;;;;;;3.88;2.72;;;19.80;53.30;;;;;;5001853;28;20049;-46
2022/09/13 05:47:24;;;;;;;4.47;2.42;;;19.80;53.30;;;;;;5002732;28;20053;-50
2022/09/13 05:49:52;;;;;;;3.55;2.70;;;19.90;53.40;;;;;;4997383;28;20061;-47
2022/09/13 05:52:21;;;;;;;3.80;2.65;;;19.90;53.30;;;;;;4992287;28;20050;-48
2022/09/13 05:54:48;;;;;;;3.10;2.33;;;19.90;53.40;;;;;;5000564;28;20057;-52
2022/09/13 05:57:15;;;;;;;2.90;2.40;;;19.80;53.40;;;;;;4999487;28;20422;-48
2022/09/13 05:59:42;;;;;;;3.10;2.63;;;19.80;53.40;;;;;;4999033;28;20060;-52
2022/09/13 06:02:10;;;;;;;4.25;2.83;;;19.80;53.50;;;;;;4992148;28;20057;-50
2022/09/13 06:04:37;;;;;;;3.13;2.50;;;19.80;53.40;;;;;;5002889;28;20061;-47
2022/09/13 06:07:04;;;;;;;7.60;3.00;;;19.80;53.40;;;;;;5001511;28;20053;-50
2022/09/13 06:09:33;;;;;;;3.05;2.55;;;19.90;53.40;;;;;;5003174;28;20054;-48
2022/09/13 06:12:00;;;;;;;4.40;2.70;;;19.90;53.40;;;;;;4998278;28;20054;-45
2022/09/13 06:14:27;;;;;;;3.35;2.28;;;19.90;53.40;;;;;;5000373;28;20057;-49
2022/09/13 06:16:54;;;;;;;4.15;2.45;;;19.90;53.40;;;;;;5002085;28;20073;-47
2022/09/13 06:19:22;;;;;;;3.17;2.80;;;19.90;53.50;;;;;;5006425;28;20497;-49
2022/09/13 06:21:49;;;;;;;4.35;2.75;;;19.90;53.40;;;;;;5002499;28;20054;-48
2022/09/13 06:24:16;;;;;;;2.88;2.53;;;19.90;53.40;;;;;;5006295;28;20050;-46
2022/09/13 06:26:44;;;;;;;5.38;2.42;;;19.90;53.50;;;;;;5005697;28;20061;-49
2022/09/13 06:29:12;;;;;;;6.35;2.70;;;19.90;53.60;;;;;;5005740;28;20080;-50
2022/09/13 06:31:43;;;;;;;2.30;2.10;;;19.90;53.70;;;;;;5001554;28;20061;-46
2022/09/13 06:34:12;;;;;;;4.93;2.22;;;20.00;53.80;;;;;;5001124;28;20058;-45
2022/09/13 06:36:39;;;;;;;4.00;2.13;;;19.90;53.60;;;;;;5002979;28;20054;-48
2022/09/13 06:39:06;;;;;;;3.88;2.70;;;20.00;53.70;;;;;;4999132;28;20073;-48
2022/09/13 06:41:34;;;;;;;2.70;2.47;;;20.00;53.60;;;;;;4993768;28;20076;-48
2022/09/13 06:44:03;;;;;;;3.33;2.63;;;20.00;53.70;;;;;;4998290;28;20516;-48
2022/09/13 06:46:32;;;;;;;2.70;2.50;;;20.00;53.90;;;;;;5001105;28;20049;-49
2022/09/13 06:49:00;;;;;;;6.15;2.72;;;20.00;53.90;;;;;;4997420;28;20057;-49
2022/09/13 06:51:29;;;;;;;3.10;2.22;;;20.10;54.10;;;;;;4998023;28;20068;-52
2022/09/13 06:53:56;;;;;;;4.97;2.20;;;20.10;54.10;;;;;;5003830;28;20395;-45
2022/09/13 06:56:25;;;;;;;2.97;2.40;;;20.10;54.10;;;;;;5000804;28;20054;-49
2022/09/13 06:58:56;;;;;;;3.83;2.40;;;20.10;54.10;;;;;;5003604;28;20386;-45
2022/09/13 07:01:27;;;;;;;3.67;2.47;;;20.10;54.10;;;;;;5002546;28;20065;-45
2022/09/13 07:03:57;;;;;;;3.25;2.72;;;20.20;54.10;;;;;;5006056;28;20379;-48
2022/09/13 07:06:26;;;;;;;3.10;2.15;;;20.20;54.00;;;;;;5003543;28;20058;-49
2022/09/13 07:08:55;;;;;;;3.72;2.45;;;20.20;53.90;;;;;;5001190;28;20046;-49
2022/09/13 07:11:25;;;;;;;3.90;2.22;;;20.20;53.90;;;;;;4999672;28;20417;-53
2022/09/13 07:13:54;;;;;;;3.58;2.88;;;20.20;53.90;;;;;;5003427;28;20058;-51
2022/09/13 07:16:25;;;;;;;7.72;2.72;;;20.30;53.90;;;;;;5003058;28;20065;-47
2022/09/13 07:18:53;;;;;;;4.82;2.40;;;20.30;53.90;;;;;;5003675;28;20064;-51
2022/09/13 07:21:21;;;;;;;2.53;2.30;;;20.30;53.80;;;;;;4991464;28;21025;-52
2022/09/13 07:23:49;;;;;;;3.53;2.50;;;20.30;53.80;;;;;;5004751;28;20053;-50
2022/09/13 07:26:16;;;;;;;2.75;2.35;;;20.40;53.90;;;;;;5002667;28;20061;-47
2022/09/13 07:28:45;;;;;;;3.28;2.50;;;20.40;53.90;;;;;;5001849;28;20049;-49
2022/09/13 07:31:14;;;;;;;2.55;2.35;;;20.40;54.10;;;;;;4995236;28;20049;-49
2022/09/13 07:33:44;;;;;;;7.95;2.67;;;20.40;54.10;;;;;;5003805;28;20054;-50
2022/09/13 07:36:13;;;;;;;2.33;2.13;;;20.40;54.20;;;;;;5003165;28;20509;-48
2022/09/13 07:38:43;;;;;;;3.20;2.25;;;20.50;54.20;;;;;;5003121;28;20054;-51
2022/09/13 07:41:12;;;;;;;3.28;2.30;;;20.50;54.20;;;;;;4994450;28;20045;-51
2022/09/13 07:43:40;;;;;;;2.10;1.90;;;20.50;54.10;;;;;;5003138;28;20502;-50
2022/09/13 07:46:09;;;;;;;4.55;2.55;;;20.50;54.00;;;;;;5000964;28;20061;-51
2022/09/13 07:48:38;;;;;;;7.28;2.42;;;20.60;54.10;;;;;;5002677;28;20058;-49
2022/09/13 07:51:09;;;;;;;3.38;2.53;;;20.60;54.00;;;;;;4992516;28;20050;-47
2022/09/13 07:53:38;;;;;;;4.18;2.28;;;20.60;53.90;;;;;;4994017;28;20410;-46
2022/09/13 07:56:07;;;;;;;7.55;2.40;;;20.70;54.00;;;;;;4992927;28;20050;-51
2022/09/13 07:58:36;;;;;;;2.53;2.33;;;20.70;54.10;;;;;;4986583;28;20054;-51
2022/09/13 08:01:08;;;;;;;3.65;2.40;;;20.70;54.10;;;;;;4997007;28;20049;-49
2022/09/13 08:03:36;;;;;;;2.50;2.30;;;20.80;54.20;;;;;;4996544;28;20509;-51
2022/09/13 08:06:04;;;;;;;3.60;2.50;;;20.80;54.20;;;;;;5001683;28;20379;-47
2022/09/13 08:08:34;;;;;;;4.50;2.40;;;20.90;54.20;;;;;;4995668;28;20126;-51
2022/09/13 08:11:03;;;;;;;5.78;2.38;;;20.90;54.20;;;;;;4992429;28;20054;-51
2022/09/13 08:13:31;;;;;;;5.03;2.60;;;21.00;54.30;;;;;;4997519;28;20054;-49
2022/09/13 08:16:01;;;;;;;3.38;2.20;;;21.00;54.30;;;;;;5001275;28;20513;-49
2022/09/13 08:18:28;;;;;;;2.35;2.00;;;21.10;54.30;;;;;;5002733;28;20520;-46
2022/09/13 08:20:57;;;;;;;3.25;1.90;;;21.20;54.30;;;;;;4998945;28;20063;-50
2022/09/13 08:23:25;;;;;;;5.10;2.00;;;21.20;54.40;;;;;;5000156;28;20076;-50
2022/09/13 08:25:54;;;;;;;2.10;1.77;;;21.20;54.40;;;;;;4997018;28;20058;-46
2022/09/13 08:28:22;;;;;;;2.80;1.90;;;21.30;54.30;;;;;;5003703;28;20053;-48
2022/09/13 08:30:49;;;;;;;2.85;1.98;;;21.40;54.30;;;;;;4996749;28;20058;-50
2022/09/13 08:33:16;;;;;;;3.50;2.10;;;21.40;54.30;;;;;;5000845;28;20057;-49
2022/09/13 08:35:51;;;;;;;4.70;2.10;;;21.50;54.30;;;;;;5001615;28;20050;-51
2022/09/13 08:38:19;;;;;;;3.17;2.00;;;21.60;54.40;;;;;;4994065;28;20069;-52
2022/09/13 08:40:51;;;;;;;2.38;1.98;;;21.60;54.40;;;;;;4989985;28;20057;-54
2022/09/13 08:43:28;;;;;;;9.80;2.05;;;21.70;54.30;;;;;;4985976;28;20049;-53
2022/09/13 08:46:01;;;;;;;2.35;1.83;;;21.70;54.20;;;;;;4994855;28;20065;-49
2022/09/13 08:48:33;;;;;;;2.10;1.90;;;21.80;54.20;;;;;;4996255;28;20413;-54
2022/09/13 08:51:06;;;;;;;2.40;2.10;;;21.80;54.00;;;;;;4988645;28;20061;-46
2022/09/13 08:53:43;;;;;;;2.08;1.88;;;21.90;53.90;;;;;;4989513;28;20054;-50
2022/09/13 08:56:12;;;;;;;3.08;1.83;;;21.90;53.70;;;;;;4990438;28;20050;-47
2022/09/13 08:58:53;;;;;;;2.30;1.70;;;22.00;53.60;;;;;;4997010;28;20066;-46
2022/09/13 09:01:37;;;;;;;3.28;1.98;;;22.00;53.60;;;;;;4984212;28;20050;-51
2022/09/13 09:04:13;;;;;;;3.83;1.85;;;22.00;53.50;;;;;;4993711;28;20425;-50
2022/09/13 09:06:42;;;;;;;3.20;1.65;;;22.10;53.30;;;;;;4996908;28;20057;-49
2022/09/13 09:09:16;;;;;;;2.42;1.67;;;22.20;53.50;;;;;;4995051;28;20046;-46
2022/09/13 09:11:50;;;;;;;2.53;1.88;;;22.20;53.80;;;;;;4981591;28;20066;-46
2022/09/13 09:14:27;;;;;;;2.00;1.70;;;22.30;53.80;;;;;;4999546;28;20069;-48
2022/09/13 09:16:58;;;;;;;2.67;1.60;;;22.30;53.70;;;;;;4998773;28;20422;-51
2022/09/13 09:19:33;;;;;;;2.42;1.63;;;22.40;53.20;;;;;;4998589;28;20069;-50
2022/09/13 09:22:04;;;;;;;3.53;1.60;;;22.50;53.10;;;;;;4999998;28;20064;-49
2022/09/13 09:24:37;;;;;;;3.30;1.70;;;22.50;52.40;;;;;;5001780;28;20398;-49
2022/09/13 09:27:14;;;;;;;1.73;1.38;;;22.60;52.00;;;;;;5002280;28;20056;-49
2022/09/13 09:29:45;;;;;;;2.50;1.60;;;22.70;51.90;;;;;;5001547;28;20056;-49
2022/09/13 09:32:23;;;;;;;1.95;1.27;;;22.70;51.60;;;;;;4996124;28;20046;-51
2022/09/13 09:35:01;;;;;;;2.95;1.52;;;22.80;51.20;;;;;;4992575;28;20053;-49
2022/09/13 09:37:30;;;;;;;3.67;1.77;;;22.90;50.90;;;;;;5000985;28;20524;-49
2022/09/13 09:40:00;;;;;;;5.57;1.67;;;23.00;51.10;;;;;;5000067;28;20062;-50
2022/09/13 09:42:32;;;;;;;3.60;1.60;;;23.10;51.00;;;;;;5001317;28;20058;-48
2022/09/13 09:45:04;;;;;;;5.55;2.15;;;23.10;51.10;;;;;;5003144;28;20410;-48
2022/09/13 09:47:38;;;;;;;5.72;1.65;;;23.20;50.90;;;;;;5001531;28;20058;-51
2022/09/13 09:50:13;;;;;;;3.72;1.70;;;23.30;49.60;;;;;;4997505;28;20524;-48
2022/09/13 09:52:49;;;;;;;2.08;1.52;;;23.40;50.00;;;;;;4998123;28;20098;-48
2022/09/13 09:55:26;;;;;;;3.25;1.45;;;23.40;49.70;;;;;;4995483;28;20054;-50
2022/09/13 09:57:56;;;;;;;4.38;2.03;;;23.50;49.80;;;;;;5001852;28;20058;-53
2022/09/13 10:00:27;;;;;;;5.15;1.98;;;23.60;49.90;;;;;;4998750;28;20057;-53
2022/09/13 10:02:58;;;;;;;1.60;1.10;;;23.70;49.80;;;;;;5002693;28;20060;-50
2022/09/13 10:05:29;;;;;;;5.28;1.50;;;23.70;49.60;;;;;;5001655;28;20507;-47
2022/09/13 10:08:01;;;;;;;2.22;1.33;;;23.80;49.00;;;;;;5002250;28;20060;-46
2022/09/13 10:10:41;;;;;;;3.75;1.60;;;23.90;48.90;;;;;;4998128;28;20057;-49
2022/09/13 10:13:17;;;;;;;3.17;1.58;;;23.90;48.70;;;;;;4999445;28;20061;-48
2022/09/13 10:15:56;;;;;;;2.45;1.50;;;24.00;48.50;;;;;;5000381;28;20060;-49
2022/09/13 10:18:25;;;;;;;4.70;1.90;;;24.00;47.00;;;;;;5002481;28;20084;-48
2022/09/13 10:21:04;;;;;;;3.55;1.38;;;24.10;47.00;;;;;;4998314;28;20528;-50
2022/09/13 10:23:33;;;;;;;3.42;1.40;;;24.10;47.20;;;;;;5002743;28;20053;-50
2022/09/13 10:26:07;;;;;;;4.10;1.42;;;24.10;47.20;;;;;;5001904;28;20056;-49
2022/09/13 10:28:36;;;;;;;1.88;1.27;;;24.20;46.60;;;;;;5002174;28;20490;-50
2022/09/13 10:31:09;;;;;;;3.55;1.67;;;24.20;47.10;;;;;;4998081;28;20072;-49
2022/09/13 10:33:38;;;;;;;2.30;1.30;;;24.30;47.20;;;;;;4999864;28;20060;-52
2022/09/13 10:36:12;;;;;;;3.13;1.27;;;24.40;47.40;;;;;;5002626;28;20054;-48
2022/09/13 10:38:41;;;;;;;2.30;1.30;;;24.40;47.50;;;;;;5002662;28;20064;-47
2022/09/13 10:41:20;;;;;;;4.07;1.42;;;24.40;47.50;;;;;;4997588;28;20066;-49
2022/09/13 10:43:49;;;;;;;4.70;1.55;;;24.40;47.40;;;;;;5002203;28;20375;-49
2022/09/13 10:46:23;;;;;;;3.25;1.67;;;24.50;47.00;;;;;;5002715;28;20057;-49
2022/09/13 10:48:54;;;;;;;3.05;1.48;;;24.50;46.80;;;;;;4999254;28;20057;-51
2022/09/13 10:51:33;;;;;;;2.80;1.15;;;24.50;47.10;;;;;;4995943;28;20517;-49
2022/09/13 10:54:17;;;;;;;1.73;1.23;;;24.50;47.00;;;;;;4994442;28;20057;-49
2022/09/13 10:56:45;;;;;;;1.50;1.13;;;24.50;46.60;;;;;;4999014;28;20500;-49
2022/09/13 10:59:19;;;;;;;6.82;1.17;;;24.60;46.70;;;;;;5001633;28;20077;-54
2022/09/13 11:02:02;;;;;;;1.85;1.02;;;24.70;46.70;;;;;;4999420;28;20079;-50
2022/09/13 11:04:44;;;;;;;1.05;0.93;;;24.70;46.60;;;;;;5000121;28;21049;-48
2022/09/13 11:07:24;;;;;;;2.10;1.20;;;24.70;46.90;;;;;;5004498;28;20819;-54
2022/09/13 11:09:56;;;;;;;2.80;1.00;;;24.70;46.80;;;;;;4998811;28;20053;-46
2022/09/13 11:12:31;;;;;;;2.10;1.30;;;24.80;47.10;;;;;;4999841;28;20054;-51
2022/09/13 11:15:14;;;;;;;7.00;1.63;;;24.80;46.90;;;;;;5003453;28;20061;-45
2022/09/13 11:18:16;;;;;;;2.80;1.20;;;24.90;45.80;;;;;;4998743;28;20050;-48
2022/09/13 11:20:51;;;;;;;1.83;1.08;;;24.90;46.00;;;;;;5001835;28;20053;-50
2022/09/13 11:23:43;;;;;;;2.13;1.02;;;25.00;46.40;;;;;;5002836;28;20050;-53
2022/09/13 11:26:25;;;;;;;1.05;0.90;;;25.00;45.60;;;;;;5003941;28;20391;-50
2022/09/13 11:29:05;;;;;;;2.22;1.15;;;25.00;45.50;;;;;;5002595;28;20062;-46
2022/09/13 11:31:42;;;;;;;2.00;1.02;;;25.10;45.30;;;;;;4997203;28;20053;-51
2022/09/13 11:34:22;;;;;;;2.28;0.80;;;25.10;45.20;;;;;;5003905;28;20058;-49
2022/09/13 11:37:01;;;;;;;2.95;1.10;;;25.20;45.60;;;;;;5005300;28;20062;-49
2022/09/13 11:39:32;;;;;;;3.10;1.30;;;25.20;44.30;;;;;;5004529;28;20536;-50
2022/09/13 11:42:21;;;;;;;3.28;1.20;;;25.30;44.90;;;;;;4999822;28;20493;-51
2022/09/13 11:45:10;;;;;;;1.52;1.00;;;25.40;45.00;;;;;;4989407;28;20141;-48
2022/09/13 11:47:48;;;;;;;1.98;1.02;;;25.40;45.30;;;;;;4982095;28;20406;-47
2022/09/13 11:50:27;;;;;;;3.60;1.60;;;25.50;45.20;;;;;;4980543;28;20802;-51
2022/09/13 11:53:20;;;;;;;1.92;1.10;;;25.60;45.00;;;;;;4983694;28;20054;-54
2022/09/13 11:55:52;;;;;;;3.95;1.20;;;25.60;45.00;;;;;;4977812;28;20069;-50
2022/09/13 11:58:24;;;;;;;3.20;1.38;;;25.70;45.10;;;;;;4979961;28;20494;-50
2022/09/13 12:00:57;;;;;;;3.03;1.30;;;25.80;43.90;;;;;;4982479;28;20054;-51
2022/09/13 12:03:31;;;;;;;1.92;1.00;;;25.80;43.30;;;;;;4985672;28;20414;-51
2022/09/13 12:06:04;;;;;;;2.70;1.00;;;25.80;44.70;;;;;;4985524;28;20058;-49
2022/09/13 12:08:35;;;;;;;4.72;1.30;;;25.90;44.90;;;;;;4979267;28;20517;-49
2022/09/13 12:11:07;;;;;;;6.07;1.25;;;26.00;44.20;;;;;;4981280;28;20050;-49
2022/09/13 12:13:42;;;;;;;2.65;1.48;;;26.00;44.40;;;;;;4983096;28;20414;-55
2022/09/13 12:16:16;;;;;;;3.75;1.63;;;26.10;43.80;;;;;;4983899;28;20062;-51
2022/09/13 12:18:46;;;;;;;1.90;1.23;;;26.10;43.90;;;;;;4983421;28;20058;-48
2022/09/13 12:21:18;;;;;;;2.78;1.27;;;26.20;44.30;;;;;;4977180;28;20493;-48
2022/09/13 12:23:51;;;;;;;1.52;1.30;;;26.30;44.70;;;;;;4982026;28;20050;-50
2022/09/13 12:26:21;;;;;;;2.67;1.60;;;26.30;43.80;;;;;;4983548;28;20065;-52
2022/09/13 12:28:53;;;;;;;2.95;1.50;;;26.30;44.60;;;;;;4983205;28;20046;-53
2022/09/13 12:31:23;;;;;;;1.88;1.45;;;26.40;44.60;;;;;;4976098;28;20062;-51
2022/09/13 12:33:50;;;;;;;4.18;1.52;;;26.40;44.50;;;;;;4978252;28;20494;-48
2022/09/13 12:36:51;;;;;;;2.28;1.30;;;26.50;44.00;;;;;;4974767;28;20383;-50
2022/09/13 12:39:41;;;;;;;2.05;1.15;;;26.50;44.30;;;;;;4975959;28;20053;-54
2022/09/13 12:42:47;;;;;;;2.22;1.10;;;26.50;43.90;;;;;;4978986;28;20062;-50
2022/09/13 12:45:30;;;;;;;3.90;1.30;;;26.50;44.00;;;;;;4982879;28;20042;-51
2022/09/13 12:48:24;;;;;;;3.85;1.67;;;26.60;44.10;;;;;;4981140;28;20057;-52
2022/09/13 12:51:12;;;;;;;4.15;1.10;;;26.50;44.00;;;;;;4974635;28;20058;-48
2022/09/13 12:54:25;;;;;;;2.72;1.40;;;26.60;43.90;;;;;;4975005;28;21353;-51
2022/09/13 12:57:05;;;;;;;3.95;1.20;;;26.60;43.40;;;;;;4935836;29;20055;-47
2022/09/13 13:00:04;;;;;;;2.42;1.13;;;26.60;43.80;;;;;;4978521;28;20050;-50
2022/09/13 13:02:36;;;;;;;3.10;1.70;;;26.60;43.90;;;;;;4980419;28;20054;-51
2022/09/13 13:05:06;;;;;;;2.35;1.20;;;26.60;44.00;;;;;;4981050;28;20046;-50
2022/09/13 13:07:36;;;;;;;2.20;1.20;;;26.60;44.00;;;;;;4977473;28;20482;-52
2022/09/13 13:10:05;;;;;;;2.75;1.17;;;26.60;44.00;;;;;;4979852;28;20062;-51
2022/09/13 13:12:36;;;;;;;1.83;1.20;;;26.70;44.50;;;;;;4976532;28;20065;-56
2022/09/13 13:15:07;;;;;;;5.70;2.72;;;26.70;43.80;;;;;;4978921;28;20050;-53
2022/09/13 13:17:46;;;;;;;5.00;2.30;;;26.70;44.00;;;;;;4978026;28;20081;-50